Time;durP1;ratioP1;P1;durP2;ratioP2;P2;SDS_P1;SDS_P2;PMS_P1;PMS_P2;Temp;Humidity;BMP_temperature;BMP_pressure;BME280_temperature;BME280_humidity;BME280_pressure;Samples;Min_cycle;Max_cycle;Signal;HPM_P1;HPM_P2
2022/01/15 00:01:25;;;;;;;334.67;113.00;;;;;;;10.30;100.00;99183.72;5044129;28;20077;-68
2022/01/15 00:04:08;;;;;;;346.50;114.78;;;;;;;10.13;100.00;99179.78;5061373;28;20079;-71
2022/01/15 00:07:06;;;;;;;352.63;116.10;;;;;;;10.29;100.00;99194.91;5052361;28;20091;-68
2022/01/15 00:09:43;;;;;;;324.45;109.53;;;;;;;10.47;100.00;99193.66;5040573;28;20041;-68
2022/01/15 00:12:40;;;;;;;340.23;111.20;;;;;;;10.34;100.00;99197.38;5024369;28;20049;-68
2022/01/15 00:15:21;;;;;;;351.95;115.15;;;;;;;10.32;100.00;99192.25;5024993;28;20571;-68
2022/01/15 00:18:13;;;;;;;335.45;110.50;;;;;;;10.43;100.00;99202.34;5009924;28;20060;-68
2022/01/15 00:20:55;;;;;;;341.73;115.05;;;;;;;10.40;100.00;99204.13;5014387;28;20798;-68
2022/01/15 00:23:45;;;;;;;351.92;115.40;;;;;;;10.44;100.00;99203.19;5012449;28;20554;-68
2022/01/15 00:26:26;;;;;;;360.02;117.55;;;;;;;10.42;100.00;99204.94;4998936;28;20053;-67
2022/01/15 00:29:15;;;;;;;328.48;114.25;;;;;;;10.43;100.00;99204.91;5025918;28;20144;-68
2022/01/15 00:31:57;;;;;;;322.30;107.88;;;;;;;10.43;100.00;99206.66;5041352;28;20037;-68
2022/01/15 00:34:51;;;;;;;325.23;111.50;;;;;;;10.39;100.00;99200.69;5046003;28;20151;-68
2022/01/15 00:37:31;;;;;;;322.80;110.55;;;;;;;10.34;100.00;99211.09;5024839;28;20049;-67
2022/01/15 00:40:20;;;;;;;328.08;109.30;;;;;;;10.27;100.00;99212.13;5016666;28;20053;-67
2022/01/15 00:43:04;;;;;;;324.50;107.47;;;;;;;10.25;100.00;99221.59;5026563;28;20049;-68
2022/01/15 00:45:58;;;;;;;315.52;109.78;;;;;;;10.24;100.00;99235.34;5024858;28;20041;-68
2022/01/15 00:48:34;;;;;;;315.42;110.35;;;;;;;10.18;100.00;99229.47;5009452;28;20085;-68
2022/01/15 00:51:24;;;;;;;331.97;113.27;;;;;;;10.20;100.00;99226.00;5008135;28;20119;-68
2022/01/15 00:54:06;;;;;;;;;;;;;;;10.34;100.00;99243.72;5022064;28;20388;-68
2022/01/15 00:56:55;;;;;;;315.00;111.35;;;;;;;10.32;100.00;99233.47;5016071;28;19922;-68
2022/01/15 00:59:37;;;;;;;345.58;112.88;;;;;;;10.26;100.00;99241.31;5024872;28;20105;-67
2022/01/15 01:02:26;;;;;;;347.17;114.22;;;;;;;10.35;100.00;99237.72;5005350;28;20061;-68
2022/01/15 01:05:09;;;;;;;351.98;116.13;;;;;;;10.50;100.00;99234.81;5023891;28;20522;-68
2022/01/15 01:08:04;;;;;;;352.15;113.13;;;;;;;10.60;100.00;99238.91;5041489;28;20431;-68
2022/01/15 01:10:59;;;;;;;334.95;115.65;;;;;;;10.62;100.00;99254.31;5027291;28;20666;-68
2022/01/15 01:22:56;;;;;;;363.80;115.15;;;;;;;10.42;100.00;99246.16;5038596;28;20072;-67
2022/01/15 01:25:44;;;;;;;336.33;111.45;;;;;;;10.56;100.00;99244.97;5034330;28;20128;-68
2022/01/15 01:28:42;;;;;;;332.77;112.78;;;;;;;10.64;100.00;99239.66;5031185;28;20504;-68
2022/01/15 01:31:32;;;;;;;329.35;112.13;;;;;;;10.62;100.00;99239.69;5032537;28;20053;-67
2022/01/15 01:34:24;;;;;;;335.92;112.07;;;;;;;10.57;100.00;99226.06;5035855;28;20048;-68
2022/01/15 01:37:13;;;;;;;335.67;109.50;;;;;;;10.46;100.00;99222.88;5036569;28;20111;-67
2022/01/15 01:43:14;;;;;;;348.35;110.78;;;;;;;10.42;100.00;99228.13;5024495;28;20454;-68
2022/01/15 01:46:18;;;;;;;324.77;109.93;;;;;;;10.55;100.00;99234.72;5041215;28;20044;-68
2022/01/15 01:49:02;;;;;;;332.38;107.88;;;;;;;10.24;100.00;99235.34;5041568;28;20041;-68
2022/01/15 01:51:50;;;;;;;329.73;112.22;;;;;;;10.35;100.00;99246.28;5024364;28;20134;-68
2022/01/15 01:54:38;;;;;;;328.95;109.95;;;;;;;10.38;100.00;99241.97;5043419;28;20055;-68
2022/01/15 01:57:20;;;;;;;326.02;109.00;;;;;;;10.59;100.00;99244.09;5036637;28;20470;-68
2022/01/15 02:00:20;;;;;;;311.00;108.60;;;;;;;10.41;100.00;99241.88;5038038;28;20666;-67
2022/01/15 02:02:57;;;;;;;331.08;109.80;;;;;;;10.33;100.00;99248.03;5040264;28;20445;-67
2022/01/15 02:05:51;;;;;;;322.02;109.82;;;;;;;10.32;100.00;99260.94;5038581;28;20050;-68
2022/01/15 02:08:40;;;;;;;333.90;109.75;;;;;;;10.42;100.00;99269.34;5018982;28;20119;-68
2022/01/15 02:11:29;;;;;;;348.20;109.68;;;;;;;10.41;100.00;99277.94;5024282;28;20049;-68
2022/01/15 02:14:28;;;;;;;339.60;110.93;;;;;;;10.35;100.00;99277.19;5023505;28;20053;-68
2022/01/15 02:17:18;;;;;;;330.02;112.90;;;;;;;10.42;100.00;99274.47;5023986;28;20065;-68
2022/01/15 02:23:34;;;;;;;343.20;112.65;;;;;;;10.37;100.00;99294.34;5006376;28;20049;-68
2022/01/15 02:26:20;;;;;;;330.60;109.28;;;;;;;10.56;100.00;99293.09;5025284;28;20603;-69
2022/01/15 02:29:08;;;;;;;335.40;111.47;;;;;;;10.51;100.00;99295.75;5026110;28;20380;-68
2022/01/15 02:31:53;;;;;;;331.13;110.38;;;;;;;10.46;100.00;99305.28;5027032;28;20037;-68
2022/01/15 02:34:41;;;;;;;335.27;113.82;;;;;;;10.45;100.00;99295.03;5028298;28;20826;-68
2022/01/15 02:37:30;;;;;;;331.95;108.75;;;;;;;10.49;100.00;99306.97;5029194;28;20049;-68
2022/01/15 02:40:14;;;;;;;305.35;105.45;;;;;;;10.42;100.00;99300.25;5032595;28;20118;-68
2022/01/15 02:43:09;;;;;;;322.63;109.45;;;;;;;10.62;100.00;99298.94;5038068;28;20045;-69
2022/01/15 02:46:07;;;;;;;334.70;109.45;;;;;;;10.51;100.00;99298.34;5007443;28;20662;-69
2022/01/15 02:49:05;;;;;;;317.67;108.13;;;;;;;10.44;100.00;99296.75;5004898;28;20061;-69
2022/01/15 02:51:46;;;;;;;312.35;106.15;;;;;;;10.50;100.00;99306.09;5005502;28;20113;-69
2022/01/15 02:54:41;;;;;;;311.63;105.90;;;;;;;10.52;100.00;99304.34;5006139;28;20712;-70
2022/01/15 02:57:17;;;;;;;299.35;105.20;;;;;;;10.46;100.00;99314.75;5017127;28;20205;-68
2022/01/15 03:00:13;;;;;;;337.75;108.80;;;;;;;10.39;100.00;99318.31;5027144;28;20064;-68
2022/01/15 03:02:49;;;;;;;307.67;107.28;;;;;;;10.42;100.00;99315.69;5021984;28;20132;-68
2022/01/15 03:05:43;;;;;;;313.95;103.65;;;;;;;10.49;100.00;99314.69;5021421;28;20052;-69
2022/01/15 03:08:38;;;;;;;313.25;105.57;;;;;;;10.61;100.00;99327.34;5043206;28;20188;-68
2022/01/15 03:11:28;;;;;;;299.25;104.43;;;;;;;10.55;100.00;99330.03;5032038;28;20062;-69
2022/01/15 03:14:12;;;;;;;310.30;103.45;;;;;;;10.59;100.00;99334.25;5041549;28;20053;-68
2022/01/15 03:16:59;;;;;;;314.55;104.40;;;;;;;10.74;100.00;99342.53;5044587;28;20552;-67
2022/01/15 03:19:48;;;;;;;325.13;105.53;;;;;;;10.82;100.00;99344.94;5047113;28;20059;-68
2022/01/15 03:22:36;;;;;;;312.33;104.20;;;;;;;10.67;100.00;99347.84;5045124;28;20076;-68
2022/01/15 03:25:18;;;;;;;308.05;105.15;;;;;;;10.68;100.00;99352.09;5044025;28;20048;-68
2022/01/15 03:28:06;;;;;;;316.38;104.60;;;;;;;10.68;100.00;99350.38;5047004;28;20052;-68
2022/01/15 03:30:50;;;;;;;307.67;107.57;;;;;;;10.73;100.00;99365.75;5039676;28;20756;-68
2022/01/15 03:33:38;;;;;;;311.73;105.18;;;;;;;10.86;100.00;99374.06;5024815;28;20555;-69
2022/01/15 03:36:21;;;;;;;321.70;105.90;;;;;;;10.81;100.00;99384.47;5033820;28;20529;-69
2022/01/15 03:39:11;;;;;;;284.80;104.82;;;;;;;10.80;100.00;99382.78;5037601;28;20083;-68
2022/01/15 03:41:53;;;;;;;294.98;103.00;;;;;;;10.92;100.00;99387.72;5027587;28;20076;-68
2022/01/15 03:44:42;;;;;;;287.80;100.40;;;;;;;10.73;100.00;99386.34;5034034;28;20045;-69
2022/01/15 03:47:23;;;;;;;285.17;100.30;;;;;;;10.87;100.00;99388.66;5030606;28;20057;-69
2022/01/15 03:50:13;;;;;;;284.23;100.68;;;;;;;10.69;100.00;99392.47;5026022;28;20054;-69
2022/01/15 03:52:57;;;;;;;307.38;105.40;;;;;;;10.85;100.00;99401.59;5032759;28;20048;-69
2022/01/15 03:55:45;;;;;;;302.88;103.80;;;;;;;10.92;100.00;99408.31;5043438;28;20419;-69
2022/01/15 03:58:27;;;;;;;305.58;106.45;;;;;;;10.94;100.00;99411.69;5044059;28;22169;-69
2022/01/15 04:01:16;;;;;;;295.02;103.93;;;;;;;10.95;100.00;99415.13;5047457;28;20053;-69
2022/01/15 04:03:58;;;;;;;313.02;107.63;;;;;;;10.88;100.00;99416.13;5036746;28;20037;-68
2022/01/15 04:06:48;;;;;;;310.20;106.78;;;;;;;11.06;100.00;99406.31;5021410;28;20053;-68
2022/01/15 04:09:29;;;;;;;290.92;103.93;;;;;;;10.93;100.00;99412.59;5017911;28;20055;-69
2022/01/15 04:12:20;;;;;;;326.52;104.60;;;;;;;11.05;100.00;99420.09;5021859;28;20045;-69
2022/01/15 04:15:04;;;;;;;317.35;105.45;;;;;;;11.26;100.00;99433.41;5019979;28;20807;-69
2022/01/15 04:17:53;;;;;;;303.38;103.82;;;;;;;11.18;100.00;99430.13;5021255;28;20038;-68
2022/01/15 04:20:36;;;;;;;279.20;100.60;;;;;;;11.05;100.00;99439.84;5006224;28;20484;-68
2022/01/15 04:23:25;;;;;;;300.65;104.03;;;;;;;10.97;100.00;99445.16;5025059;28;20061;-69
2022/01/15 04:26:06;;;;;;;306.20;103.18;;;;;;;11.15;100.00;99443.97;5025468;28;20149;-69
2022/01/15 04:29:03;;;;;;;316.73;104.75;;;;;;;11.24;100.00;99448.94;5008732;28;20044;-69
2022/01/15 04:31:48;;;;;;;300.45;105.80;;;;;;;11.19;100.00;99447.31;5005213;28;20050;-69
2022/01/15 04:34:37;;;;;;;338.10;110.88;;;;;;;11.42;100.00;99445.09;5013448;28;20061;-68
2022/01/15 04:37:22;;;;;;;316.77;107.97;;;;;;;11.27;100.00;99443.69;5005982;28;20049;-69
2022/01/15 04:40:13;;;;;;;315.88;108.65;;;;;;;11.35;100.00;99440.94;5004034;28;20053;-72
2022/01/15 04:42:57;;;;;;;308.85;106.53;;;;;;;11.52;100.00;99442.31;5014414;28;20057;-72
2022/01/15 04:45:46;;;;;;;333.48;110.00;;;;;;;11.52;100.00;99439.72;5017113;28;20103;-71
2022/01/15 04:48:29;;;;;;;315.95;106.53;;;;;;;11.60;100.00;99447.28;5004771;28;20104;-72
2022/01/15 04:51:17;;;;;;;306.60;100.70;;;;;;;11.43;100.00;99446.81;5018761;28;20381;-71
2022/01/15 04:54:13;;;;;;;308.98;103.65;;;;;;;11.52;100.00;99454.34;5012976;28;20053;-72
2022/01/15 04:56:48;;;;;;;317.75;105.40;;;;;;;11.61;100.00;99451.56;4994068;28;20080;-71
2022/01/15 04:59:43;;;;;;;308.90;105.97;;;;;;;11.83;100.00;99455.41;5006375;28;20563;-71
2022/01/15 05:02:19;;;;;;;292.20;102.40;;;;;;;11.61;100.00;99469.66;5011391;28;20045;-71
2022/01/15 05:05:09;;;;;;;311.58;103.97;;;;;;;11.51;100.00;99473.28;5013186;28;20057;-70
2022/01/15 05:07:58;;;;;;;315.88;102.15;;;;;;;11.48;100.00;99481.13;5033948;28;20049;-71
2022/01/15 05:10:48;;;;;;;296.75;102.43;;;;;;;11.65;100.00;99489.34;5036782;28;20162;-70
2022/01/15 05:13:36;;;;;;;311.67;99.88;;;;;;;11.52;100.00;99482.75;5036550;28;20083;-71
2022/01/15 05:16:18;;;;;;;320.40;101.65;;;;;;;11.56;100.00;99486.13;5047477;28;20076;-71
2022/01/15 05:19:08;;;;;;;301.33;98.45;;;;;;;11.77;100.00;99488.25;5052789;28;20037;-71
2022/01/15 05:21:49;;;;;;;311.00;101.88;;;;;;;11.65;100.00;99483.34;5039522;28;20668;-70
2022/01/15 05:24:37;;;;;;;296.27;98.47;;;;;;;11.83;100.00;99499.28;5044611;28;20072;-71
2022/01/15 05:27:26;;;;;;;309.38;100.47;;;;;;;12.00;100.00;99500.66;5043422;28;20072;-70
2022/01/15 05:30:12;;;;;;;300.92;96.95;;;;;;;11.60;100.00;99506.66;5041885;28;20041;-68
2022/01/15 05:33:00;;;;;;;310.48;99.80;;;;;;;11.61;100.00;99504.91;5047635;28;20699;-67
2022/01/15 05:35:49;;;;;;;304.85;101.88;;;;;;;11.75;100.00;99508.94;5043294;28;20049;-69
2022/01/15 05:38:32;;;;;;;330.13;105.13;;;;;;;11.81;100.00;99506.22;5039981;28;20168;-67
2022/01/15 05:41:20;;;;;;;311.65;100.82;;;;;;;11.87;100.00;99511.28;5044298;28;20320;-67
2022/01/15 05:44:03;;;;;;;308.75;103.55;;;;;;;11.83;100.00;99519.94;5036134;28;20057;-69
2022/01/15 05:46:52;;;;;;;330.95;106.40;;;;;;;12.14;100.00;99516.69;5031442;28;20045;-67
2022/01/15 05:49:34;;;;;;;346.13;109.82;;;;;;;12.28;100.00;99514.66;5046189;28;20056;-67
2022/01/15 05:52:24;;;;;;;331.52;103.38;;;;;;;12.16;100.00;99518.34;5029677;28;20052;-67
2022/01/15 05:55:07;;;;;;;323.98;104.57;;;;;;;11.94;100.00;99519.72;5046715;28;20180;-67
2022/01/15 05:57:56;;;;;;;316.08;104.00;;;;;;;12.18;100.00;99531.25;5043437;28;20053;-67
2022/01/15 06:00:42;;;;;;;316.65;102.93;;;;;;;12.30;100.00;99527.50;5040141;28;20357;-67
2022/01/15 06:03:33;;;;;;;336.27;103.10;;;;;;;12.49;100.00;99537.38;5040197;28;20053;-67
2022/01/15 06:06:19;;;;;;;;;;;;;;;12.65;100.00;99524.94;5040762;28;20201;-67
2022/01/15 06:09:08;;;;;;;339.00;104.88;;;;;;;12.87;100.00;99523.50;5043921;28;19928;-67
2022/01/15 06:11:50;;;;;;;317.70;104.70;;;;;;;12.96;100.00;99527.59;5040007;28;20553;-68
2022/01/15 06:14:39;;;;;;;313.20;101.88;;;;;;;12.94;100.00;99516.41;5043615;28;20095;-66
2022/01/15 06:17:23;;;;;;;316.77;101.82;;;;;;;13.08;100.00;99516.09;5043446;28;20551;-68
2022/01/15 06:20:11;;;;;;;298.85;99.22;;;;;;;13.36;100.00;99510.13;5039675;28;20037;-67
2022/01/15 06:22:53;;;;;;;296.02;99.03;;;;;;;13.19;100.00;99512.31;5041792;28;20130;-69
2022/01/15 06:25:42;;;;;;;307.05;98.32;;;;;;;12.76;100.00;99499.66;5040484;28;20053;-68
2022/01/15 06:28:26;;;;;;;313.10;101.68;;;;;;;13.11;100.00;99501.31;5041910;28;20052;-68
2022/01/15 06:31:15;;;;;;;298.27;101.05;;;;;;;13.14;100.00;99503.84;5043656;28;20067;-68
2022/01/15 06:33:58;;;;;;;310.42;100.93;;;;;;;13.28;100.00;99493.13;5043475;28;20077;-69
2022/01/15 06:36:47;;;;;;;291.92;99.68;;;;;;;13.21;100.00;99476.94;5042518;28;20131;-67
2022/01/15 06:39:29;;;;;;;317.27;103.28;;;;;;;13.60;100.00;99481.84;5044094;28;20053;-69
2022/01/15 06:42:18;;;;;;;309.77;100.00;;;;;;;13.52;100.00;99481.22;5023818;28;20067;-68
2022/01/15 06:45:00;;;;;;;294.67;100.50;;;;;;;13.33;100.00;99480.88;5039682;28;20071;-68
2022/01/15 06:47:48;;;;;;;307.58;101.50;;;;;;;13.51;100.00;99489.88;5037533;28;20052;-68
2022/01/15 06:50:31;;;;;;;298.33;100.95;;;;;;;13.70;100.00;99491.03;5040185;28;20048;-68
2022/01/15 06:53:20;;;;;;;308.42;101.45;;;;;;;13.77;100.00;99480.47;5037091;28;20044;-65
2022/01/15 06:56:02;;;;;;;302.13;99.43;;;;;;;13.92;100.00;99488.66;5042106;28;20052;-68
2022/01/15 06:58:51;;;;;;;299.60;99.13;;;;;;;13.82;100.00;99479.47;5040679;28;20045;-68
2022/01/15 07:01:32;;;;;;;285.98;101.07;;;;;;;13.45;100.00;99464.19;5043539;28;20044;-66
2022/01/15 07:04:20;;;;;;;285.02;98.10;;;;;;;13.91;100.00;99455.88;5044657;28;20053;-67
2022/01/15 07:07:08;;;;;;;307.67;102.18;;;;;;;13.70;100.00;99459.97;5035154;28;20049;-68
2022/01/15 07:10:03;;;;;;;313.92;101.43;;;;;;;13.95;100.00;99455.75;5018092;28;20054;-67
2022/01/15 07:12:39;;;;;;;303.65;101.80;;;;;;;13.75;100.00;99458.94;5007141;28;20494;-66
2022/01/15 07:15:34;;;;;;;305.13;101.90;;;;;;;14.05;100.00;99454.53;5025577;28;21508;-70
2022/01/15 07:18:10;;;;;;;319.05;100.95;;;;;;;13.89;100.00;99450.72;5025386;28;20057;-64
2022/01/15 07:21:04;;;;;;;318.70;101.50;;;;;;;13.91;100.00;99451.53;5010558;28;20053;-65
2022/01/15 07:23:46;;;;;;;303.55;97.90;;;;;;;13.48;100.00;99453.75;5020861;28;20152;-64
2022/01/15 07:26:34;;;;;;;297.83;103.68;;;;;;;13.73;100.00;99437.41;5026549;28;20049;-65
2022/01/15 07:29:16;;;;;;;318.58;103.88;;;;;;;13.48;100.00;99433.88;5024830;28;20111;-67
2022/01/15 07:32:06;;;;;;;292.75;104.13;;;;;;;13.71;100.00;99430.59;5018581;28;20049;-66
2022/01/15 07:35:02;;;;;;;302.20;106.55;;;;;;;13.99;100.00;99423.66;5023769;28;20361;-64
2022/01/15 07:37:38;;;;;;;317.70;106.90;;;;;;;13.93;100.00;99418.66;5023295;28;20507;-66
2022/01/15 07:40:33;;;;;;;305.85;106.82;;;;;;;14.00;100.00;99416.72;5023135;28;20119;-67
2022/01/15 07:43:10;;;;;;;314.77;104.85;;;;;;;14.10;100.00;99408.63;5021102;28;20111;-68
2022/01/15 07:46:07;;;;;;;313.48;110.70;;;;;;;14.27;100.00;99405.47;5026234;28;20045;-67
2022/01/15 07:48:49;;;;;;;318.83;108.38;;;;;;;14.18;100.00;99392.81;5010901;28;20053;-68
2022/01/15 07:51:37;;;;;;;331.17;110.70;;;;;;;13.70;100.00;99383.13;5017859;28;20056;-69
2022/01/15 07:54:19;;;;;;;299.95;106.68;;;;;;;13.95;100.00;99383.22;5013702;28;20049;-67
2022/01/15 07:57:08;;;;;;;301.17;107.25;;;;;;;13.90;100.00;99377.31;5004655;28;20081;-66
2022/01/15 07:59:50;;;;;;;301.58;111.13;;;;;;;13.94;100.00;99385.84;5022952;28;20087;-67
2022/01/15 08:02:45;;;;;;;324.15;111.90;;;;;;;14.05;100.00;99371.63;5021400;28;20038;-68
2022/01/15 08:05:28;;;;;;;325.20;111.70;;;;;;;14.15;100.00;99375.63;5019325;28;20049;-68
2022/01/15 08:08:23;;;;;;;317.58;113.72;;;;;;;14.43;100.00;99372.13;5035431;28;20060;-66
2022/01/15 08:10:59;;;;;;;310.92;114.82;;;;;;;14.44;100.00;99366.91;5043486;28;20052;-65
2022/01/15 08:13:56;;;;;;;328.20;113.72;;;;;;;14.49;100.00;99358.94;5044722;28;20060;-64
2022/01/15 08:16:31;;;;;;;343.23;116.75;;;;;;;14.18;100.00;99364.31;5042051;28;20059;-65
2022/01/15 08:19:26;;;;;;;329.85;116.20;;;;;;;14.66;100.00;99354.03;5037246;28;20128;-67
2022/01/15 08:22:01;;;;;;;303.30;114.60;;;;;;;14.71;100.00;99359.03;5034184;28;20056;-65
2022/01/15 08:24:50;;;;;;;341.52;119.15;;;;;;;14.65;100.00;99349.72;5038692;28;20154;-65
2022/01/15 08:27:33;;;;;;;347.80;121.05;;;;;;;14.90;100.00;99357.47;5039577;28;20044;-65
2022/01/15 08:30:28;;;;;;;348.88;124.28;;;;;;;14.60;100.00;99351.66;5041285;28;20154;-66
2022/01/15 08:33:04;;;;;;;360.52;127.00;;;;;;;14.64;100.00;99348.03;5037083;28;20053;-66
2022/01/15 08:36:01;;;;;;;361.58;126.13;;;;;;;14.93;100.00;99350.41;5037558;28;21511;-76
2022/01/15 08:38:40;;;;;;;352.05;127.50;;;;;;;15.09;100.00;99342.91;5018069;28;20068;-68
2022/01/15 08:41:39;;;;;;;344.83;125.93;;;;;;;15.25;100.00;99345.75;5034566;28;20056;-68
2022/01/15 08:44:25;;;;;;;341.27;128.07;;;;;;;15.36;100.00;99340.16;5031876;28;20132;-69
2022/01/15 08:47:14;;;;;;;356.02;131.18;;;;;;;15.49;100.00;99334.41;5039848;28;20157;-69
2022/01/15 08:49:55;;;;;;;353.90;126.93;;;;;;;15.23;100.00;99342.41;5041368;28;20053;-69
2022/01/15 08:52:45;;;;;;;352.20;130.90;;;;;;;15.17;100.00;99327.03;5027961;28;20456;-69
2022/01/15 08:55:29;;;;;;;344.17;131.77;;;;;;;15.04;100.00;99321.47;5039087;28;21323;-68
2022/01/15 08:58:25;;;;;;;351.85;132.48;;;;;;;15.12;100.00;99318.59;5032279;28;20071;-69
2022/01/15 09:01:02;;;;;;;356.67;131.68;;;;;;;14.79;100.00;99313.75;5033720;28;20045;-68
2022/01/15 09:03:57;;;;;;;394.40;136.07;;;;;;;14.74;100.00;99323.47;5023770;28;20049;-69
2022/01/15 09:06:39;;;;;;;359.70;131.07;;;;;;;14.82;100.00;99321.44;5038121;28;20041;-68
2022/01/15 09:09:28;;;;;;;348.80;130.18;;;;;;;14.67;100.00;99322.00;5011297;28;20049;-69
2022/01/15 09:12:15;;;;;;;333.80;126.25;;;;;;;14.68;100.00;99318.50;4997850;28;20049;-68
2022/01/15 09:15:25;;;;;;;333.33;123.05;;;;;;;14.93;100.00;99308.06;4997018;28;20049;-68
2022/01/15 09:18:22;;;;;;;344.70;125.18;;;;;;;14.86;100.00;99307.44;4990278;28;20037;-69
2022/01/15 09:21:20;;;;;;;345.30;127.53;;;;;;;15.02;100.00;99312.91;5001564;28;20052;-67
2022/01/15 09:24:03;;;;;;;324.23;120.25;;;;;;;15.09;100.00;99308.31;5025898;28;20058;-68
2022/01/15 09:32:54;;;;;;;356.58;129.95;;;;;;;15.07;100.00;99310.16;4975894;28;20049;-75
2022/01/15 09:35:42;;;;;;;340.55;128.57;;;;;;;14.94;100.00;99304.56;5017028;28;20081;-76
2022/01/15 09:38:24;;;;;;;333.88;128.50;;;;;;;14.87;100.00;99301.34;5018669;28;20069;-68
2022/01/15 09:41:13;;;;;;;331.63;122.78;;;;;;;14.94;100.00;99305.41;5018353;28;20437;-67
2022/01/15 09:43:56;;;;;;;359.60;134.70;;;;;;;14.95;100.00;99301.06;5001088;28;20054;-67
2022/01/15 09:46:46;;;;;;;344.15;129.95;;;;;;;14.86;100.00;99291.88;4997932;28;20045;-64
2022/01/15 09:49:28;;;;;;;366.13;132.13;;;;;;;15.00;100.00;99306.94;5022630;28;20151;-67
2022/01/15 09:52:12;;;;;;;347.15;127.72;;;;;;;14.96;100.00;99301.91;5005176;28;20515;-68
2022/01/15 09:55:02;;;;;;;349.52;130.50;;;;;;;14.68;100.00;99308.16;5006000;28;20738;-68
2022/01/15 09:57:43;;;;;;;340.67;130.45;;;;;;;14.70;100.00;99295.09;5016904;28;20041;-71
2022/01/15 10:00:32;;;;;;;337.67;128.70;;;;;;;14.52;100.00;99294.03;5009127;28;20045;-69
2022/01/15 10:03:22;;;;;;;342.35;125.72;;;;;;;14.55;100.00;99291.31;5015366;28;20053;-72
2022/01/15 10:06:04;;;;;;;331.40;128.65;;;;;;;14.42;100.00;99280.56;5025683;28;20060;-70
2022/01/15 10:09:06;;;;;;;340.20;126.93;;;;;;;14.31;100.00;99281.78;5025496;28;20037;-69
2022/01/15 10:11:52;;;;;;;351.65;130.20;;;;;;;14.38;100.00;99278.06;5004812;28;20049;-71
2022/01/15 10:14:48;;;;;;;358.75;131.52;;;;;;;14.41;100.00;99283.19;5004911;28;20041;-71
2022/01/15 10:17:35;;;;;;;356.02;128.90;;;;;;;14.44;100.00;99294.31;5023501;28;20068;-71
2022/01/15 10:20:25;;;;;;;335.02;125.22;;;;;;;14.37;100.00;99291.94;5023809;28;20049;-71
2022/01/15 10:23:15;;;;;;;352.45;126.32;;;;;;;14.23;100.00;99299.34;5025423;28;20500;-72
2022/01/15 10:26:26;;;;;;;325.45;121.60;;;;;;;14.47;100.00;99303.72;5022578;28;20049;-72
2022/01/15 10:29:14;;;;;;;329.35;124.18;;;;;;;14.47;100.00;99309.75;5005404;28;20404;-73
2022/01/15 10:31:57;;;;;;;324.10;119.82;;;;;;;14.46;100.00;99302.00;5016886;28;20054;-70
2022/01/15 10:34:45;;;;;;;353.67;121.22;;;;;;;14.40;100.00;99308.28;5000407;28;20065;-70
2022/01/15 10:37:36;;;;;;;332.95;117.50;;;;;;;14.45;100.00;99302.91;5018565;28;20151;-72
2022/01/15 10:40:47;;;;;;;326.58;121.45;;;;;;;14.47;100.00;99306.31;5022990;28;20076;-71
2022/01/15 10:43:30;;;;;;;;;;;;;;;14.34;100.00;99305.03;5007998;28;20146;-69
2022/01/15 10:46:35;;;;;;;325.05;118.10;;;;;;;14.30;100.00;99308.59;5002973;28;20003;-70
2022/01/15 10:49:33;;;;;;;342.33;123.80;;;;;;;14.21;100.00;99302.00;5016247;28;20681;-70
2022/01/15 10:52:24;;;;;;;314.45;118.97;;;;;;;14.28;100.00;99302.66;5017441;28;20065;-70
2022/01/15 10:55:16;;;;;;;327.50;123.50;;;;;;;14.29;100.00;99309.50;5015315;28;20069;-69
2022/01/15 10:58:16;;;;;;;325.38;118.75;;;;;;;14.13;100.00;99310.03;5022480;28;20632;-70
2022/01/15 11:00:53;;;;;;;344.85;123.10;;;;;;;14.15;100.00;99303.06;4999390;28;20046;-70
2022/01/15 11:03:49;;;;;;;339.73;120.72;;;;;;;14.24;100.00;99306.22;5015239;28;20049;-71
2022/01/15 11:06:36;;;;;;;314.17;118.50;;;;;;;14.16;100.00;99315.13;5010277;28;20786;-70
2022/01/15 11:09:40;;;;;;;332.25;120.28;;;;;;;14.06;100.00;99318.06;4999821;28;20041;-71
2022/01/15 11:12:18;;;;;;;334.27;118.80;;;;;;;14.05;100.00;99314.63;4998773;28;20072;-71
2022/01/15 11:15:08;;;;;;;311.30;118.70;;;;;;;14.05;100.00;99318.97;5016963;28;20050;-71
2022/01/15 11:17:57;;;;;;;306.08;112.45;;;;;;;13.93;100.00;99306.44;5013244;28;20068;-71
2022/01/15 11:20:49;;;;;;;296.92;114.45;;;;;;;13.95;100.00;99307.25;4993034;28;20045;-70
2022/01/15 11:23:34;;;;;;;321.40;115.40;;;;;;;13.82;100.00;99298.16;5011397;28;20048;-71
2022/01/15 11:26:33;;;;;;;308.60;115.85;;;;;;;13.79;100.00;99293.97;5017590;28;20151;-71
2022/01/15 11:29:21;;;;;;;333.75;120.50;;;;;;;13.84;100.00;99286.88;5015407;28;20420;-71
2022/01/15 11:32:04;;;;;;;327.92;118.78;;;;;;;13.88;100.00;99283.31;5012092;28;20054;-71
2022/01/15 11:35:15;;;;;;;330.48;120.70;;;;;;;13.76;100.00;99284.53;5017268;28;20346;-70
2022/01/15 11:37:58;;;;;;;307.40;115.95;;;;;;;13.58;100.00;99273.94;5007982;28;20049;-71
2022/01/15 11:40:53;;;;;;;308.67;116.97;;;;;;;13.59;100.00;99273.88;5016794;28;20049;-71
2022/01/15 11:43:38;;;;;;;326.20;114.75;;;;;;;13.57;100.00;99288.63;5015017;28;20413;-70
2022/01/15 11:46:40;;;;;;;329.95;115.82;;;;;;;13.54;100.00;99287.88;5004637;28;20041;-69
2022/01/15 11:49:46;;;;;;;323.42;115.80;;;;;;;13.33;100.00;99298.00;5020907;28;20448;-71
2022/01/15 11:52:27;;;;;;;352.25;115.47;;;;;;;13.37;100.00;99299.63;5022962;28;20045;-73
2022/01/15 11:55:19;;;;;;;336.33;116.60;;;;;;;13.24;100.00;99303.50;5019441;28;20077;-72
2022/01/15 11:58:01;;;;;;;322.92;117.95;;;;;;;13.25;100.00;99297.41;5021893;28;20045;-72
2022/01/15 12:00:51;;;;;;;333.00;118.22;;;;;;;13.22;100.00;99305.28;5014122;28;20413;-72
2022/01/15 12:03:41;;;;;;;320.05;117.47;;;;;;;13.36;100.00;99322.94;5003653;28;20061;-72
2022/01/15 12:06:29;;;;;;;336.80;118.53;;;;;;;13.26;100.00;99330.16;5017449;28;20054;-72
2022/01/15 12:09:41;;;;;;;341.45;121.78;;;;;;;13.22;100.00;99338.91;5033931;28;20142;-72
2022/01/15 12:12:33;;;;;;;336.52;122.25;;;;;;;13.20;100.00;99345.00;5033738;28;20072;-72
2022/01/15 12:15:19;;;;;;;362.55;124.50;;;;;;;13.18;100.00;99337.28;5036743;28;20060;-72
2022/01/15 12:18:19;;;;;;;334.20;123.68;;;;;;;13.01;100.00;99342.06;5041902;28;20048;-71
2022/01/15 12:21:14;;;;;;;364.90;126.90;;;;;;;13.06;100.00;99337.63;5038376;28;20052;-72
2022/01/15 12:23:56;;;;;;;386.90;133.48;;;;;;;13.05;100.00;99343.69;5037648;28;20064;-72
2022/01/15 12:26:59;;;;;;;369.50;130.95;;;;;;;12.94;100.00;99343.16;5037215;28;20122;-71
2022/01/15 12:29:49;;;;;;;388.92;135.95;;;;;;;12.92;100.00;99350.13;5024781;28;20044;-72
2022/01/15 12:32:44;;;;;;;389.90;137.25;;;;;;;12.92;100.00;99350.97;5044508;28;20049;-72
2022/01/15 12:35:29;;;;;;;384.40;135.85;;;;;;;13.12;100.00;99339.19;5043442;28;20056;-69
2022/01/15 12:38:28;;;;;;;376.85;133.95;;;;;;;13.02;100.00;99336.88;5026016;28;20041;-66
2022/01/15 12:41:11;;;;;;;382.42;135.50;;;;;;;13.08;100.00;99335.00;5034663;28;20037;-70
2022/01/15 12:43:58;;;;;;;380.63;132.60;;;;;;;13.13;100.00;99346.94;5032265;28;20052;-71
2022/01/15 12:46:41;;;;;;;378.75;130.18;;;;;;;13.01;100.00;99353.28;5041188;28;20053;-71
2022/01/15 12:49:28;;;;;;;391.17;133.75;;;;;;;12.98;100.00;99355.13;5026376;28;20048;-70